sensor_id;sensor_type;location;lat;lon;timestamp;pressure;altitude;pressure_sealevel;temperature;humidity
28630;BME280;15817;42.130;24.762;2023-02-10T00:02:16;102110.06;;;-1.20;62.55
28630;BME280;15817;42.130;24.762;2023-02-10T00:04:41;102107.31;;;-1.22;62.37
28630;BME280;15817;42.130;24.762;2023-02-10T00:07:07;102108.78;;;-1.25;62.53
28630;BME280;15817;42.130;24.762;2023-02-10T00:09:33;102114.56;;;-1.29;62.43
28630;BME280;15817;42.130;24.762;2023-02-10T00:11:59;102113.22;;;-1.24;62.58
28630;BME280;15817;42.130;24.762;2023-02-10T00:14:28;102127.78;;;-1.16;62.67
28630;BME280;15817;42.130;24.762;2023-02-10T00:17:33;102109.47;;;-1.28;63.15
28630;BME280;15817;42.130;24.762;2023-02-10T00:19:59;102111.25;;;-1.27;62.89
28630;BME280;15817;42.130;24.762;2023-02-10T00:22:27;102107.16;;;-1.35;62.83
28630;BME280;15817;42.130;24.762;2023-02-10T00:24:52;102127.63;;;-1.29;63.04
28630;BME280;15817;42.130;24.762;2023-02-10T00:27:23;102114.22;;;-1.34;62.96
28630;BME280;15817;42.130;24.762;2023-02-10T00:29:52;102100.31;;;-1.44;63.12
28630;BME280;15817;42.130;24.762;2023-02-10T00:36:07;102095.09;;;-1.44;63.63
28630;BME280;15817;42.130;24.762;2023-02-10T00:38:34;102121.38;;;-1.31;63.75
28630;BME280;15817;42.130;24.762;2023-02-10T00:43:57;102112.59;;;-1.43;64.26
28630;BME280;15817;42.130;24.762;2023-02-10T00:46:46;102113.25;;;-1.46;64.35
28630;BME280;15817;42.130;24.762;2023-02-10T01:04:40;102107.56;;;-1.96;64.18
28630;BME280;15817;42.130;24.762;2023-02-10T01:07:08;102101.13;;;-2.11;64.64
28630;BME280;15817;42.130;24.762;2023-02-10T01:09:34;102103.38;;;-2.15;64.82
28630;BME280;15817;42.130;24.762;2023-02-10T01:12:23;102101.94;;;-2.12;64.72
28630;BME280;15817;42.130;24.762;2023-02-10T01:14:48;102085.13;;;-2.15;65.44
28630;BME280;15817;42.130;24.762;2023-02-10T01:17:15;102088.44;;;-2.06;64.66
28630;BME280;15817;42.130;24.762;2023-02-10T01:19:42;102081.19;;;-2.10;63.86
28630;BME280;15817;42.130;24.762;2023-02-10T01:22:08;102087.13;;;-2.01;63.97
28630;BME280;15817;42.130;24.762;2023-02-10T01:24:34;102084.66;;;-2.00;63.89
28630;BME280;15817;42.130;24.762;2023-02-10T01:27:09;102087.38;;;-1.98;63.86
28630;BME280;15817;42.130;24.762;2023-02-10T01:29:35;102071.69;;;-2.10;63.59
28630;BME280;15817;42.130;24.762;2023-02-10T01:32:10;102066.78;;;-2.27;64.41
28630;BME280;15817;42.130;24.762;2023-02-10T01:35:02;102073.22;;;-2.34;64.13
28630;BME280;15817;42.130;24.762;2023-02-10T01:37:29;102067.22;;;-2.33;64.63
28630;BME280;15817;42.130;24.762;2023-02-10T01:44:06;102070.78;;;-2.42;64.54
28630;BME280;15817;42.130;24.762;2023-02-10T01:46:35;102072.63;;;-2.51;64.93
28630;BME280;15817;42.130;24.762;2023-02-10T01:49:12;102066.94;;;-2.58;65.29
28630;BME280;15817;42.130;24.762;2023-02-10T01:52:05;102080.31;;;-2.53;65.87
28630;BME280;15817;42.130;24.762;2023-02-10T01:54:57;102075.78;;;-2.56;65.71
28630;BME280;15817;42.130;24.762;2023-02-10T01:57:26;102065.50;;;-2.54;65.50
28630;BME280;15817;42.130;24.762;2023-02-10T01:59:53;102067.97;;;-2.56;65.41
28630;BME280;15817;42.130;24.762;2023-02-10T02:02:25;102077.72;;;-2.53;65.53
28630;BME280;15817;42.130;24.762;2023-02-10T02:04:59;102068.88;;;-2.55;65.85
28630;BME280;15817;42.130;24.762;2023-02-10T02:07:32;102065.63;;;-2.63;65.45
28630;BME280;15817;42.130;24.762;2023-02-10T02:10:02;102073.63;;;-2.39;65.79
28630;BME280;15817;42.130;24.762;2023-02-10T02:12:37;102067.09;;;-2.34;65.15
28630;BME280;15817;42.130;24.762;2023-02-10T02:15:13;102067.50;;;-2.40;64.98
28630;BME280;15817;42.130;24.762;2023-02-10T02:24:26;102044.72;;;-2.74;65.65
28630;BME280;15817;42.130;24.762;2023-02-10T02:30:36;102049.25;;;-2.72;66.50
28630;BME280;15817;42.130;24.762;2023-02-10T02:36:18;102038.31;;;-2.68;66.19
28630;BME280;15817;42.130;24.762;2023-02-10T02:38:47;102051.03;;;-2.61;65.72
28630;BME280;15817;42.130;24.762;2023-02-10T02:59:30;102030.91;;;-2.73;67.01
28630;BME280;15817;42.130;24.762;2023-02-10T03:02:15;102043.53;;;-2.68;66.85
28630;BME280;15817;42.130;24.762;2023-02-10T03:04:47;102027.13;;;-2.77;66.89
28630;BME280;15817;42.130;24.762;2023-02-10T03:07:35;102038.06;;;-2.71;66.69
28630;BME280;15817;42.130;24.762;2023-02-10T03:10:10;102051.69;;;-2.63;66.69
28630;BME280;15817;42.130;24.762;2023-02-10T03:12:47;102027.53;;;-2.72;67.31
28630;BME280;15817;42.130;24.762;2023-02-10T03:15:49;102037.25;;;-2.60;67.06
28630;BME280;15817;42.130;24.762;2023-02-10T03:18:42;102032.44;;;-2.65;67.17
28630;BME280;15817;42.130;24.762;2023-02-10T03:21:20;102038.97;;;-2.70;67.43
28630;BME280;15817;42.130;24.762;2023-02-10T03:23:51;102038.31;;;-2.68;67.42
28630;BME280;15817;42.130;24.762;2023-02-10T03:26:17;102052.91;;;-2.70;66.71
28630;BME280;15817;42.130;24.762;2023-02-10T03:28:43;102031.88;;;-2.93;67.30
28630;BME280;15817;42.130;24.762;2023-02-10T03:31:12;102042.16;;;-2.95;67.80
28630;BME280;15817;42.130;24.762;2023-02-10T03:33:47;102040.47;;;-2.94;67.94
28630;BME280;15817;42.130;24.762;2023-02-10T03:36:16;102021.09;;;-2.98;67.80
28630;BME280;15817;42.130;24.762;2023-02-10T03:39:04;102026.41;;;-2.96;67.84
28630;BME280;15817;42.130;24.762;2023-02-10T03:41:30;102041.91;;;-2.98;67.50
28630;BME280;15817;42.130;24.762;2023-02-10T03:43:56;102035.94;;;-3.07;67.03
28630;BME280;15817;42.130;24.762;2023-02-10T03:46:22;102036.75;;;-3.18;67.41
28630;BME280;15817;42.130;24.762;2023-02-10T03:49:10;102040.66;;;-3.13;67.06
28630;BME280;15817;42.130;24.762;2023-02-10T03:51:35;102031.97;;;-3.23;67.09
28630;BME280;15817;42.130;24.762;2023-02-10T04:01:00;102025.31;;;-3.20;67.13
28630;BME280;15817;42.130;24.762;2023-02-10T04:03:29;102013.75;;;-3.23;66.91
28630;BME280;15817;42.130;24.762;2023-02-10T04:09:55;102016.44;;;-3.22;67.19
28630;BME280;15817;42.130;24.762;2023-02-10T04:12:26;102003.47;;;-3.32;67.22
28630;BME280;15817;42.130;24.762;2023-02-10T04:15:01;102016.09;;;-3.26;67.82
28630;BME280;15817;42.130;24.762;2023-02-10T04:17:46;102018.13;;;-3.22;67.57
28630;BME280;15817;42.130;24.762;2023-02-10T04:20:15;102017.75;;;-3.17;67.29
28630;BME280;15817;42.130;24.762;2023-02-10T04:22:50;102008.53;;;-3.13;67.40
28630;BME280;15817;42.130;24.762;2023-02-10T04:25:24;102016.31;;;-3.13;66.94
28630;BME280;15817;42.130;24.762;2023-02-10T04:27:52;102014.38;;;-3.16;67.61
28630;BME280;15817;42.130;24.762;2023-02-10T04:30:21;102014.25;;;-3.17;67.43
28630;BME280;15817;42.130;24.762;2023-02-10T04:33:03;102009.81;;;-3.18;67.32
28630;BME280;15817;42.130;24.762;2023-02-10T04:35:49;102016.19;;;-3.15;67.47
28630;BME280;15817;42.130;24.762;2023-02-10T04:38:18;102002.00;;;-3.18;67.65
28630;BME280;15817;42.130;24.762;2023-02-10T04:41:03;102014.63;;;-3.13;68.03
28630;BME280;15817;42.130;24.762;2023-02-10T04:43:45;102016.47;;;-3.12;67.50
28630;BME280;15817;42.130;24.762;2023-02-10T04:46:28;102015.94;;;-3.18;67.92
28630;BME280;15817;42.130;24.762;2023-02-10T04:49:30;102019.06;;;-3.12;67.53
28630;BME280;15817;42.130;24.762;2023-02-10T04:51:58;102019.31;;;-3.19;67.51
28630;BME280;15817;42.130;24.762;2023-02-10T04:54:26;102012.44;;;-3.29;67.17
28630;BME280;15817;42.130;24.762;2023-02-10T04:57:01;102017.25;;;-3.33;67.74
28630;BME280;15817;42.130;24.762;2023-02-10T04:59:33;102026.34;;;-3.28;67.25
28630;BME280;15817;42.130;24.762;2023-02-10T05:02:08;102021.69;;;-3.42;67.16
28630;BME280;15817;42.130;24.762;2023-02-10T05:04:33;102037.28;;;-3.42;67.41
28630;BME280;15817;42.130;24.762;2023-02-10T05:07:07;102032.09;;;-3.42;67.44
28630;BME280;15817;42.130;24.762;2023-02-10T05:09:35;102032.88;;;-3.43;67.77
28630;BME280;15817;42.130;24.762;2023-02-10T05:12:14;102036.91;;;-3.37;67.89
28630;BME280;15817;42.130;24.762;2023-02-10T05:17:42;102022.44;;;-3.33;68.25
28630;BME280;15817;42.130;24.762;2023-02-10T05:20:16;102021.94;;;-3.29;68.41
28630;BME280;15817;42.130;24.762;2023-02-10T05:23:02;102017.91;;;-3.25;68.61
28630;BME280;15817;42.130;24.762;2023-02-10T05:25:28;102030.50;;;-3.20;68.28
28630;BME280;15817;42.130;24.762;2023-02-10T05:27:54;102026.06;;;-3.21;68.57
28630;BME280;15817;42.130;24.762;2023-02-10T05:30:29;102028.69;;;-3.21;68.25
28630;BME280;15817;42.130;24.762;2023-02-10T05:32:55;102034.16;;;-3.18;68.75
28630;BME280;15817;42.130;24.762;2023-02-10T05:35:21;102027.13;;;-3.19;68.34
28630;BME280;15817;42.130;24.762;2023-02-10T05:37:50;102027.00;;;-3.20;68.81
28630;BME280;15817;42.130;24.762;2023-02-10T05:40:16;102035.31;;;-3.14;68.44
28630;BME280;15817;42.130;24.762;2023-02-10T05:42:41;102022.69;;;-3.20;68.74
28630;BME280;15817;42.130;24.762;2023-02-10T05:48:19;102036.34;;;-3.22;68.24
28630;BME280;15817;42.130;24.762;2023-02-10T05:51:05;102039.88;;;-3.22;68.67
28630;BME280;15817;42.130;24.762;2023-02-10T05:53:30;102038.72;;;-3.25;68.31
28630;BME280;15817;42.130;24.762;2023-02-10T05:55:56;102060.31;;;-3.16;68.46
28630;BME280;15817;42.130;24.762;2023-02-10T05:58:22;102048.22;;;-3.26;68.58
28630;BME280;15817;42.130;24.762;2023-02-10T06:00:51;102045.75;;;-3.24;68.50
28630;BME280;15817;42.130;24.762;2023-02-10T06:03:16;102043.38;;;-3.21;68.60
28630;BME280;15817;42.130;24.762;2023-02-10T06:05:42;102043.25;;;-3.23;68.58
28630;BME280;15817;42.130;24.762;2023-02-10T06:08:49;102049.38;;;-3.22;68.36
28630;BME280;15817;42.130;24.762;2023-02-10T06:11:59;102058.84;;;-3.23;68.73
28630;BME280;15817;42.130;24.762;2023-02-10T06:14:39;102069.03;;;-3.16;68.38
28630;BME280;15817;42.130;24.762;2023-02-10T06:17:08;102055.88;;;-3.17;68.79
28630;BME280;15817;42.130;24.762;2023-02-10T06:19:58;102075.00;;;-3.07;68.37
28630;BME280;15817;42.130;24.762;2023-02-10T06:26:04;102069.03;;;-3.16;68.32
28630;BME280;15817;42.130;24.762;2023-02-10T06:28:45;102083.44;;;-3.09;68.27
28630;BME280;15817;42.130;24.762;2023-02-10T06:31:21;102075.41;;;-3.12;68.25
28630;BME280;15817;42.130;24.762;2023-02-10T06:34:04;102095.31;;;-3.03;67.98
28630;BME280;15817;42.130;24.762;2023-02-10T06:36:44;102075.28;;;-3.14;67.95
28630;BME280;15817;42.130;24.762;2023-02-10T06:39:34;102069.28;;;-3.13;68.13
28630;BME280;15817;42.130;24.762;2023-02-10T06:42:00;102066.91;;;-3.10;68.04
28630;BME280;15817;42.130;24.762;2023-02-10T06:44:26;102069.66;;;-3.08;68.31
28630;BME280;15817;42.130;24.762;2023-02-10T06:47:01;102069.53;;;-3.10;67.97
28630;BME280;15817;42.130;24.762;2023-02-10T06:49:27;102070.84;;;-3.05;68.05
28630;BME280;15817;42.130;24.762;2023-02-10T06:51:55;102071.09;;;-3.02;68.21
28630;BME280;15817;42.130;24.762;2023-02-10T06:54:24;102074.59;;;-2.91;68.34
28630;BME280;15817;42.130;24.762;2023-02-10T06:56:56;102078.22;;;-2.89;67.81
28630;BME280;15817;42.130;24.762;2023-02-10T07:02:22;102068.19;;;-2.95;67.20
28630;BME280;15817;42.130;24.762;2023-02-10T07:08:22;102063.91;;;-2.94;67.34
28630;BME280;15817;42.130;24.762;2023-02-10T07:11:01;102064.94;;;-2.92;67.42
28630;BME280;15817;42.130;24.762;2023-02-10T07:13:40;102073.78;;;-2.80;67.33
28630;BME280;15817;42.130;24.762;2023-02-10T07:16:13;102055.72;;;-2.88;67.22
28630;BME280;15817;42.130;24.762;2023-02-10T07:22:18;102075.22;;;-2.83;67.02
28630;BME280;15817;42.130;24.762;2023-02-10T07:28:18;102087.69;;;-2.69;66.17
28630;BME280;15817;42.130;24.762;2023-02-10T07:30:43;102069.97;;;-2.73;66.02
28630;BME280;15817;42.130;24.762;2023-02-10T07:33:12;102084.66;;;-2.64;65.77
28630;BME280;15817;42.130;24.762;2023-02-10T07:35:39;102087.50;;;-2.61;65.79
28630;BME280;15817;42.130;24.762;2023-02-10T07:38:07;102097.53;;;-2.55;65.74
28630;BME280;15817;42.130;24.762;2023-02-10T07:40:34;102081.25;;;-2.63;65.89
28630;BME280;15817;42.130;24.762;2023-02-10T07:46:24;102069.28;;;-2.61;66.12
28630;BME280;15817;42.130;24.762;2023-02-10T07:49:05;102069.13;;;-2.52;65.65
28630;BME280;15817;42.130;24.762;2023-02-10T07:51:33;102073.94;;;-2.46;65.68
28630;BME280;15817;42.130;24.762;2023-02-10T07:54:05;102067.38;;;-2.41;66.20
28630;BME280;15817;42.130;24.762;2023-02-10T07:56:41;102065.69;;;-2.41;65.64
28630;BME280;15817;42.130;24.762;2023-02-10T07:59:39;102058.00;;;-2.39;65.22
28630;BME280;15817;42.130;24.762;2023-02-10T08:02:11;102079.81;;;-2.27;65.54
28630;BME280;15817;42.130;24.762;2023-02-10T08:04:49;102065.16;;;-2.37;65.17
28630;BME280;15817;42.130;24.762;2023-02-10T08:07:17;102067.22;;;-2.33;65.28
28630;BME280;15817;42.130;24.762;2023-02-10T08:09:46;102061.47;;;-2.29;65.15
28630;BME280;15817;42.130;24.762;2023-02-10T08:12:38;102061.84;;;-2.24;64.75
28630;BME280;15817;42.130;24.762;2023-02-10T08:15:20;102063.66;;;-2.23;64.80
28630;BME280;15817;42.130;24.762;2023-02-10T08:17:50;102070.50;;;-2.13;64.46
28630;BME280;15817;42.130;24.762;2023-02-10T08:20:16;102065.00;;;-2.06;64.34
28630;BME280;15817;42.130;24.762;2023-02-10T08:22:42;102053.00;;;-2.04;63.73
28630;BME280;15817;42.130;24.762;2023-02-10T08:25:18;102071.31;;;-1.93;63.84
28630;BME280;15817;42.130;24.762;2023-02-10T08:27:44;102065.31;;;-1.92;63.50
28630;BME280;15817;42.130;24.762;2023-02-10T08:30:10;102070.09;;;-1.86;63.05
28630;BME280;15817;42.130;24.762;2023-02-10T08:32:37;102058.75;;;-1.87;63.20
28630;BME280;15817;42.130;24.762;2023-02-10T08:35:10;102073.69;;;-1.74;63.25
28630;BME280;15817;42.130;24.762;2023-02-10T08:37:38;102074.16;;;-1.68;63.07
28630;BME280;15817;42.130;24.762;2023-02-10T08:40:25;102070.28;;;-1.61;63.38
28630;BME280;15817;42.130;24.762;2023-02-10T08:42:54;102055.69;;;-1.59;63.15
28630;BME280;15817;42.130;24.762;2023-02-10T08:45:20;102054.03;;;-1.47;63.19
28630;BME280;15817;42.130;24.762;2023-02-10T08:47:56;102050.31;;;-1.39;62.90
28630;BME280;15817;42.130;24.762;2023-02-10T08:50:22;102047.38;;;-1.32;62.55
28630;BME280;15817;42.130;24.762;2023-02-10T08:52:51;102078.97;;;-1.17;62.13
28630;BME280;15817;42.130;24.762;2023-02-10T08:55:56;102052.75;;;-1.19;62.19
28630;BME280;15817;42.130;24.762;2023-02-10T08:58:22;102053.56;;;-1.08;61.88
28630;BME280;15817;42.130;24.762;2023-02-10T09:07:38;102050.50;;;-0.67;60.85
28630;BME280;15817;42.130;24.762;2023-02-10T09:10:10;102038.94;;;-0.71;60.33
28630;BME280;15817;42.130;24.762;2023-02-10T09:12:37;102046.75;;;-0.59;59.98
28630;BME280;15817;42.130;24.762;2023-02-10T09:15:20;102031.28;;;-0.56;59.89
28630;BME280;15817;42.130;24.762;2023-02-10T09:18:16;102023.31;;;-0.46;59.48
28630;BME280;15817;42.130;24.762;2023-02-10T09:21:04;102030.25;;;-0.35;58.88
28630;BME280;15817;42.130;24.762;2023-02-10T09:23:30;102035.34;;;-0.25;58.84
28630;BME280;15817;42.130;24.762;2023-02-10T09:25:58;102022.28;;;-0.25;58.45
28630;BME280;15817;42.130;24.762;2023-02-10T09:28:27;102023.59;;;-0.18;58.73
28630;BME280;15817;42.130;24.762;2023-02-10T09:30:54;102010.50;;;-0.07;57.29
28630;BME280;15817;42.130;24.762;2023-02-10T09:33:20;102017.59;;;0.08;57.23
28630;BME280;15817;42.130;24.762;2023-02-10T09:35:49;102003.50;;;0.06;56.95
28630;BME280;15817;42.130;24.762;2023-02-10T09:38:17;102005.38;;;0.20;56.26
28630;BME280;15817;42.130;24.762;2023-02-10T09:43:53;102005.63;;;0.36;55.23
28630;BME280;15817;42.130;24.762;2023-02-10T09:52:13;102003.09;;;0.62;54.42
28630;BME280;15817;42.130;24.762;2023-02-10T09:54:43;101980.13;;;0.58;53.88
28630;BME280;15817;42.130;24.762;2023-02-10T09:57:33;101993.34;;;0.73;53.02
28630;BME280;15817;42.130;24.762;2023-02-10T10:00:05;101987.31;;;0.74;53.38
28630;BME280;15817;42.130;24.762;2023-02-10T10:02:49;101976.66;;;0.97;53.75
28630;BME280;15817;42.130;24.762;2023-02-10T10:05:21;101971.84;;;1.03;53.36
28630;BME280;15817;42.130;24.762;2023-02-10T10:07:50;101954.38;;;1.04;52.55
28630;BME280;15817;42.130;24.762;2023-02-10T10:10:39;101967.56;;;1.19;51.96
28630;BME280;15817;42.130;24.762;2023-02-10T10:13:16;101952.75;;;1.19;52.02
28630;BME280;15817;42.130;24.762;2023-02-10T10:16:10;101940.25;;;1.28;53.12
28630;BME280;15817;42.130;24.762;2023-02-10T10:21:19;101938.03;;;1.34;52.00
28630;BME280;15817;42.130;24.762;2023-02-10T10:24:12;101947.97;;;1.40;51.96
28630;BME280;15817;42.130;24.762;2023-02-10T10:26:51;101946.28;;;1.40;51.85
28630;BME280;15817;42.130;24.762;2023-02-10T10:29:48;101942.75;;;1.40;51.68
28630;BME280;15817;42.130;24.762;2023-02-10T10:32:52;101928.22;;;1.45;52.79
28630;BME280;15817;42.130;24.762;2023-02-10T10:35:27;101922.53;;;1.52;51.13
28630;BME280;15817;42.130;24.762;2023-02-10T10:37:55;101912.56;;;1.60;50.08
28630;BME280;15817;42.130;24.762;2023-02-10T10:40:34;101915.19;;;1.60;49.73
28630;BME280;15817;42.130;24.762;2023-02-10T10:43:02;101906.56;;;1.62;49.58
28630;BME280;15817;42.130;24.762;2023-02-10T10:46:34;101917.03;;;1.75;50.01
28630;BME280;15817;42.130;24.762;2023-02-10T10:49:02;101897.13;;;1.79;50.37
28630;BME280;15817;42.130;24.762;2023-02-10T10:51:28;101901.78;;;1.83;50.31
28630;BME280;15817;42.130;24.762;2023-02-10T10:54:00;101897.13;;;1.79;51.12
28630;BME280;15817;42.130;24.762;2023-02-10T11:01:55;101890.03;;;1.91;49.10
28630;BME280;15817;42.130;24.762;2023-02-10T11:04:25;101875.91;;;1.89;48.19
28630;BME280;15817;42.130;24.762;2023-02-10T11:06:56;101886.63;;;2.07;48.24
28630;BME280;15817;42.130;24.762;2023-02-10T11:09:33;101882.63;;;2.13;47.81
28630;BME280;15817;42.130;24.762;2023-02-10T11:12:15;101873.03;;;2.14;47.34
28630;BME280;15817;42.130;24.762;2023-02-10T11:14:44;101860.19;;;2.04;46.86
28630;BME280;15817;42.130;24.762;2023-02-10T11:17:28;101870.94;;;2.08;47.27
28630;BME280;15817;42.130;24.762;2023-02-10T11:20:23;101876.47;;;2.13;47.96
28630;BME280;15817;42.130;24.762;2023-02-10T11:23:02;101860.38;;;2.07;48.20
28630;BME280;15817;42.130;24.762;2023-02-10T11:25:32;101855.03;;;2.05;49.09
28630;BME280;15817;42.130;24.762;2023-02-10T11:28:31;101850.69;;;2.06;48.72
28630;BME280;15817;42.130;24.762;2023-02-10T11:31:01;101847.16;;;2.05;48.76
28630;BME280;15817;42.130;24.762;2023-02-10T11:33:31;101851.94;;;2.12;49.85
28630;BME280;15817;42.130;24.762;2023-02-10T11:39:52;101848.06;;;2.06;49.01
28630;BME280;15817;42.130;24.762;2023-02-10T11:42:27;101841.63;;;2.15;48.51
28630;BME280;15817;42.130;24.762;2023-02-10T11:47:46;101835.38;;;2.13;47.32
28630;BME280;15817;42.130;24.762;2023-02-10T11:50:29;101834.03;;;2.20;47.11
28630;BME280;15817;42.130;24.762;2023-02-10T11:55:58;101826.91;;;2.17;47.85
28630;BME280;15817;42.130;24.762;2023-02-10T12:01:51;101811.06;;;2.16;47.30
28630;BME280;15817;42.130;24.762;2023-02-10T12:04:47;101816.03;;;2.26;47.02
28630;BME280;15817;42.130;24.762;2023-02-10T12:13:48;101793.69;;;2.18;47.92
28630;BME280;15817;42.130;24.762;2023-02-10T12:22:20;101788.75;;;2.24;46.97
28630;BME280;15817;42.130;24.762;2023-02-10T12:25:06;101774.66;;;2.22;46.15
28630;BME280;15817;42.130;24.762;2023-02-10T12:33:50;101775.06;;;2.44;45.83
28630;BME280;15817;42.130;24.762;2023-02-10T12:36:47;101775.34;;;2.49;45.34
28630;BME280;15817;42.130;24.762;2023-02-10T12:52:55;101747.31;;;2.64;43.64
28630;BME280;15817;42.130;24.762;2023-02-10T13:20:00;101744.97;;;2.54;42.95
28630;BME280;15817;42.130;24.762;2023-02-10T13:23:39;101739.28;;;2.46;42.82
28630;BME280;15817;42.130;24.762;2023-02-10T13:37:19;101743.31;;;2.40;43.88
28630;BME280;15817;42.130;24.762;2023-02-10T13:39:58;101733.53;;;2.37;44.80
28630;BME280;15817;42.130;24.762;2023-02-10T13:42:37;101719.22;;;2.32;43.45
28630;BME280;15817;42.130;24.762;2023-02-10T13:57:57;101720.09;;;2.47;40.78
28630;BME280;15817;42.130;24.762;2023-02-10T14:00:44;101741.53;;;2.55;42.35
28630;BME280;15817;42.130;24.762;2023-02-10T14:12:33;101716.78;;;2.35;43.38
28630;BME280;15817;42.130;24.762;2023-02-10T14:15:22;101700.03;;;2.33;43.71
28630;BME280;15817;42.130;24.762;2023-02-10T14:21:42;101710.31;;;2.45;42.16
28630;BME280;15817;42.130;24.762;2023-02-10T14:44:15;101694.53;;;2.29;44.23
28630;BME280;15817;42.130;24.762;2023-02-10T15:11:18;101720.22;;;2.34;42.27
28630;BME280;15817;42.130;24.762;2023-02-10T15:18:22;101707.69;;;2.14;46.21
28630;BME280;15817;42.130;24.762;2023-02-10T15:24:37;101714.13;;;2.04;45.86
28630;BME280;15817;42.130;24.762;2023-02-10T15:33:50;101708.69;;;2.01;47.30
28630;BME280;15817;42.130;24.762;2023-02-10T15:36:33;101710.22;;;1.98;46.41
28630;BME280;15817;42.130;24.762;2023-02-10T15:39:53;101709.50;;;2.00;47.30
28630;BME280;15817;42.130;24.762;2023-02-10T15:43:24;101715.22;;;1.93;49.15
28630;BME280;15817;42.130;24.762;2023-02-10T15:46:22;101713.41;;;1.92;47.99
28630;BME280;15817;42.130;24.762;2023-02-10T15:48:50;101706.28;;;1.90;49.40
28630;BME280;15817;42.130;24.762;2023-02-10T15:51:45;101704.28;;;1.86;50.24
28630;BME280;15817;42.130;24.762;2023-02-10T15:57:33;101711.88;;;1.81;50.87
28630;BME280;15817;42.130;24.762;2023-02-10T16:00:09;101715.94;;;1.76;51.21
28630;BME280;15817;42.130;24.762;2023-02-10T16:02:53;101722.47;;;1.83;51.23
28630;BME280;15817;42.130;24.762;2023-02-10T16:05:24;101726.44;;;1.76;50.61
28630;BME280;15817;42.130;24.762;2023-02-10T16:11:14;101720.75;;;1.68;50.64
28630;BME280;15817;42.130;24.762;2023-02-10T16:13:39;101725.00;;;1.66;50.47
28630;BME280;15817;42.130;24.762;2023-02-10T16:23:19;101741.09;;;1.58;50.75
28630;BME280;15817;42.130;24.762;2023-02-10T16:26:19;101743.72;;;1.58;50.51
28630;BME280;15817;42.130;24.762;2023-02-10T16:29:37;101746.25;;;1.56;50.57
28630;BME280;15817;42.130;24.762;2023-02-10T16:32:14;101750.59;;;1.56;50.33
28630;BME280;15817;42.130;24.762;2023-02-10T16:34:58;101763.19;;;1.61;49.94
28630;BME280;15817;42.130;24.762;2023-02-10T16:37:24;101758.16;;;1.51;50.09
28630;BME280;15817;42.130;24.762;2023-02-10T16:39:59;101760.72;;;1.50;50.48
28630;BME280;15817;42.130;24.762;2023-02-10T16:42:27;101767.56;;;1.48;50.51
28630;BME280;15817;42.130;24.762;2023-02-10T16:51:53;101768.53;;;1.35;51.03
28630;BME280;15817;42.130;24.762;2023-02-10T16:55:13;101768.44;;;1.33;52.33
28630;BME280;15817;42.130;24.762;2023-02-10T16:58:28;101769.25;;;1.32;51.84
28630;BME280;15817;42.130;24.762;2023-02-10T17:05:16;101776.31;;;1.33;51.00
28630;BME280;15817;42.130;24.762;2023-02-10T17:08:18;101777.81;;;1.30;51.19
28630;BME280;15817;42.130;24.762;2023-02-10T17:11:52;101766.16;;;1.25;52.74
28630;BME280;15817;42.130;24.762;2023-02-10T17:14:44;101791.63;;;1.27;52.93
28630;BME280;15817;42.130;24.762;2023-02-10T17:21:14;101792.47;;;1.26;53.83
28630;BME280;15817;42.130;24.762;2023-02-10T17:31:01;101787.28;;;1.13;54.69
28630;BME280;15817;42.130;24.762;2023-02-10T17:33:41;101779.47;;;1.00;54.27
28630;BME280;15817;42.130;24.762;2023-02-10T17:36:47;101778.44;;;0.98;54.59
28630;BME280;15817;42.130;24.762;2023-02-10T17:39:23;101791.53;;;0.98;54.50
28630;BME280;15817;42.130;24.762;2023-02-10T17:41:58;101780.88;;;0.95;54.45
28630;BME280;15817;42.130;24.762;2023-02-10T17:44:24;101787.13;;;0.97;54.62
28630;BME280;15817;42.130;24.762;2023-02-10T17:47:00;101788.81;;;0.96;54.48
28630;BME280;15817;42.130;24.762;2023-02-10T17:49:43;101787.56;;;0.90;54.78
28630;BME280;15817;42.130;24.762;2023-02-10T17:52:31;101779.59;;;0.88;54.41
28630;BME280;15817;42.130;24.762;2023-02-10T17:55:09;101789.06;;;0.86;54.99
28630;BME280;15817;42.130;24.762;2023-02-10T17:58:04;101785.53;;;0.86;54.79
28630;BME280;15817;42.130;24.762;2023-02-10T18:00:56;101786.34;;;0.85;54.67
28630;BME280;15817;42.130;24.762;2023-02-10T18:03:35;101789.59;;;0.81;54.49
28630;BME280;15817;42.130;24.762;2023-02-10T18:06:10;101791.31;;;0.80;55.07
28630;BME280;15817;42.130;24.762;2023-02-10T18:12:40;101793.41;;;0.72;55.97
28630;BME280;15817;42.130;24.762;2023-02-10T18:15:25;101792.31;;;0.69;55.41
28630;BME280;15817;42.130;24.762;2023-02-10T18:18:02;101799.16;;;0.67;56.57
28630;BME280;15817;42.130;24.762;2023-02-10T18:20:42;101808.75;;;0.66;56.41
28630;BME280;15817;42.130;24.762;2023-02-10T18:23:14;101820.72;;;0.63;55.93
28630;BME280;15817;42.130;24.762;2023-02-10T18:25:50;101803.09;;;0.47;56.17
28630;BME280;15817;42.130;24.762;2023-02-10T18:28:34;101804.72;;;0.45;56.29
28630;BME280;15817;42.130;24.762;2023-02-10T18:31:21;101822.63;;;0.52;56.48
28630;BME280;15817;42.130;24.762;2023-02-10T18:37:13;101816.00;;;0.44;57.36
28630;BME280;15817;42.130;24.762;2023-02-10T18:39:43;101814.88;;;0.41;57.23
28630;BME280;15817;42.130;24.762;2023-02-10T18:42:37;101825.47;;;0.42;57.48
28630;BME280;15817;42.130;24.762;2023-02-10T18:45:24;101837.22;;;0.49;57.64
28630;BME280;15817;42.130;24.762;2023-02-10T18:52:08;101828.38;;;0.33;57.83
28630;BME280;15817;42.130;24.762;2023-02-10T18:55:17;101834.31;;;0.31;57.51
28630;BME280;15817;42.130;24.762;2023-02-10T18:58:31;101825.34;;;0.27;57.86
28630;BME280;15817;42.130;24.762;2023-02-10T19:01:35;101829.66;;;0.27;57.73
28630;BME280;15817;42.130;24.762;2023-02-10T19:04:23;101819.19;;;0.27;58.17
28630;BME280;15817;42.130;24.762;2023-02-10T19:07:00;101827.97;;;0.27;58.68